Bristol, NH (03222)

09:55 AM EDT del 30 Agosto 2015 (GMT -0400)
Bristol Village | | Change Station
CLOSE
Current Station
Stazione meteo personale
Location: Bristol, NH
Altitudine: 515 ft
Stazioni meteo nelle vicinanze

Alt. 515 ft 43.59 °N, 71.74 °W | Updated 26 seconds ago

Parzialmente nuvoloso
Parzialmente nuvoloso
71.5 °F
Sembra 74 °F
N
0.0
Vento Variabile Vento da Ovest
Gusts 1.0 mph

Oggi
Massima -- | Minima -- °F
--% Possibilità di precip.
Ieri
Massima -- | Minima -- °F
Precip. -- in
6:08 AM 7:26 PM
Luna piena, 99% visible
Pressione 30.08 in
Visibilità 10.0 miglia
Nuvole Nubi sparse 11000 ft
Indice di calore 74 °F
Punto di rugiada 63 °F
Umidità 73%
Piovosità 0.00 in
Spessore del manto nevoso Non disponibile.
Raggi UV 2.5 fuori da 12
Polline 8.10 fuori da 12
Qualità dell'aria Non disponibile.
Flu Activity Non disponibile.
METAR K1P1 301335Z AUTO 00000KT 10SM SCT110 19/16 A3008 RMK AO2 T01910161
Pressione 30.08 in
Visibilità 10.0 miglia
Nuvole Nubi sparse 11000 ft
Indice di calore 74 °F
Punto di rugiada 63 °F
Umidità 73%
Piovosità 0.00 in
Spessore del manto nevoso Non disponibile.
Raggi UV 2.5 fuori da 12
Polline 8.10 fuori da 12
Qualità dell'aria Non disponibile.
Flu Activity Non disponibile.
METAR K1P1 301335Z AUTO 00000KT 10SM SCT110 19/16 A3008 RMK AO2 T01910161

10-Day Weather Forecast

×

Almanac

Astronomia

Aug. 30, 2015 Alba Tramonto
Ora attuale
Crepuscolo civile
Crepuscolo nautico
Crepuscolo astronomico
Luna
Estensione della luce visibile
Lunghezza del giorno
Tomorrow will be .
, % of the Moon is Illuminated

Gli estremi di oggi

State Highs State Lows

Community

WunderPhotos

Upload Photos

1,850,954 foto caricate!

WunderBlogs® & News

Nearby

Qualità dell'aria

  Qualità dell'aria Indice AQ Inquinante
Not available.

Profondità neve

Stazione Profondità Altitudine

Attività sismica

Città  Distanza Mag. Data & Ora
Minimo Magnitudo Mostrato è 2.5.

Temperature delle acque costiere

Località Temperatura

Stations

Stazioni meteo nelle vicinanze

Ubicazione della stazione Temp. Raffreddamento del vento Punto di rugiada Umidità Vento Precip. Alt. Aggiornato Tipo